Time;durP1;ratioP1;P1;durP2;ratioP2;P2;SDS_P1;SDS_P2;PMS_P1;PMS_P2;Temp;Humidity;BMP_temperature;BMP_pressure;BME280_temperature;BME280_humidity;BME280_pressure;Samples;Min_cycle;Max_cycle;Signal;HPM_P1;HPM_P2
2024/03/23 00:00:52;;;;;;;;;;;10.10;99.90;;;10.49;71.16;99859.25;5119167;28;20018;-81
2024/03/23 00:03:20;;;;;;;;;;;10.00;99.90;;;10.48;71.26;99848.78;5118397;28;19924;-81
2024/03/23 00:05:47;;;;;;;;;;;10.00;99.90;;;10.45;71.37;99854.59;5116412;28;20407;-81
2024/03/23 00:08:19;;;;;;;;;;;10.00;99.90;;;10.41;71.37;99848.06;5118289;28;20002;-81
2024/03/23 00:10:47;;;;;;;;;;;9.90;99.90;;;10.29;70.28;99840.81;5101076;28;20358;-81
2024/03/23 00:13:15;;;;;;;;;;;9.80;99.90;;;10.25;71.31;99855.66;5117023;28;19924;-81
2024/03/23 00:15:42;;;;;;;;;;;9.80;99.90;;;10.25;71.23;99849.53;5118985;28;19928;-81
2024/03/23 00:18:10;;;;;;;;;;;9.80;99.90;;;10.29;70.79;99838.16;5116867;28;19951;-81
2024/03/23 00:20:37;;;;;;;;;;;9.80;99.90;;;10.28;70.67;99841.88;5117326;28;20287;-81
2024/03/23 00:23:05;;;;;;;;;;;9.80;99.90;;;10.20;70.78;99843.97;5118855;28;19928;-81
2024/03/23 00:25:35;;;;;;;;;;;9.70;99.90;;;10.21;70.46;99838.44;5116887;28;19930;-81
2024/03/23 00:28:10;;;;;;;;;;;9.70;99.90;;;10.18;70.33;99832.75;5118867;28;19924;-81
2024/03/23 00:30:41;;;;;;;;;;;9.70;99.90;;;10.17;70.19;99828.47;5117317;28;19931;-81
2024/03/23 00:33:13;;;;;;;;;;;9.70;99.90;;;10.14;70.09;99837.72;5118558;28;19946;-81
2024/03/23 00:35:43;;;;;;;;;;;9.70;99.90;;;10.10;70.24;99831.19;5118878;28;19931;-81
2024/03/23 00:38:14;;;;;;;;;;;9.60;99.90;;;10.13;70.29;99827.28;5134609;27;19923;-81
2024/03/23 00:40:44;;;;;;;;;;;9.70;99.90;;;10.14;70.30;99827.03;5132871;27;19928;-81
2024/03/23 00:43:15;;;;;;;;;;;9.70;99.90;;;10.14;70.09;99813.72;5118028;28;20390;-81
2024/03/23 00:45:47;;;;;;;;;;;9.70;99.90;;;10.13;70.30;99814.75;5118445;28;20382;-81
2024/03/23 00:48:18;;;;;;;;;;;9.70;99.90;;;10.14;70.34;99819.06;5133721;27;19924;-81
2024/03/23 00:50:45;;;;;;;;;;;9.70;99.90;;;10.16;70.33;99813.53;5100290;28;19923;-81
2024/03/23 00:53:14;;;;;;;;;;;9.70;99.90;;;10.14;70.24;99816.38;5118686;28;20288;-82
2024/03/23 00:55:41;;;;;;;;;;;9.70;99.90;;;10.10;69.90;99809.06;5118218;28;19928;-81
2024/03/23 00:58:09;;;;;;;;;;;9.70;99.90;;;10.02;69.79;99802.22;5118331;28;20011;-81
2024/03/23 01:00:35;;;;;;;;;;;9.60;99.90;;;10.03;69.58;99799.31;5099441;28;19981;-81
2024/03/23 01:03:04;;;;;;;;;;;9.60;99.90;;;10.03;69.30;99796.66;5099576;28;19924;-81
2024/03/23 01:05:32;;;;;;;;;;;9.60;99.90;;;10.02;69.60;99794.22;5099022;28;19927;-81
2024/03/23 01:07:59;;;;;;;;;;;9.60;99.90;;;10.03;69.81;99798.50;5099420;28;19927;-81
2024/03/23 01:10:25;;;;;;;;;;;9.60;99.90;;;10.06;69.47;99792.75;5119012;28;20441;-81
2024/03/23 01:12:52;;;;;;;;;;;9.60;99.90;;;10.05;69.54;99799.06;5099541;28;19969;-81
2024/03/23 01:15:19;;;;;;;;;;;9.60;99.90;;;10.04;69.45;99800.94;5099681;28;19924;-81
2024/03/23 01:17:46;;;;;;;;;;;9.60;99.90;;;10.00;69.71;99789.13;5099493;28;20275;-81
2024/03/23 01:20:13;;;;;;;;;;;9.60;99.90;;;10.00;69.47;99780.28;5117671;28;20310;-81
2024/03/23 01:22:42;;;;;;;;;;;9.60;99.90;;;9.97;69.42;99800.22;5098135;28;19924;-81
2024/03/23 01:25:08;;;;;;;;;;;9.50;99.90;;;9.87;68.68;99785.81;5097775;28;19931;-81
2024/03/23 01:27:35;;;;;;;;;;;9.40;99.90;;;9.79;69.32;99782.38;5080047;28;19931;-81
2024/03/23 01:30:04;;;;;;;;;;;9.30;99.90;;;9.78;69.00;99772.78;5097793;28;19925;-81
2024/03/23 01:32:32;;;;;;;;;;;9.30;99.90;;;9.78;69.09;99770.13;5098426;28;19924;-81
2024/03/23 01:34:58;;;;;;;;;;;9.30;99.90;;;9.78;69.09;99770.13;5079578;28;19952;-81
2024/03/23 01:37:25;;;;;;;;;;;9.30;99.90;;;9.80;69.19;99769.88;5063222;28;19966;-81
2024/03/23 01:39:52;;;;;;;;;;;9.30;99.90;;;9.80;69.60;99775.22;5062586;28;19971;-81
2024/03/23 01:42:20;;;;;;;;;;;9.30;99.90;;;9.80;69.49;99789.34;5063496;28;19931;-81
2024/03/23 01:44:47;;;;;;;;;;;9.30;99.90;;;9.72;68.33;99788.84;5062841;28;20298;-81
2024/03/23 01:47:14;;;;;;;;;;;9.30;99.90;;;9.69;68.76;99792.75;5097129;28;19931;-81
2024/03/23 01:49:40;;;;;;;;;;;9.20;99.90;;;9.71;68.96;99789.84;5079258;28;20019;-81
2024/03/23 01:52:08;;;;;;;;;;;9.20;99.90;;;9.65;67.96;99769.44;5045114;28;19935;-81
2024/03/23 01:54:35;;;;;;;;;;;9.20;99.90;;;9.63;68.60;99751.03;5096965;28;19927;-81
2024/03/23 01:57:04;;;;;;;;;;;9.20;99.90;;;9.64;68.77;99741.22;5029386;28;19932;-81
2024/03/23 01:59:30;;;;;;;;;;;9.20;99.90;;;9.65;69.10;99754.28;5078934;28;19924;-81
2024/03/23 02:01:58;;;;;;;;;;;9.20;99.90;;;9.66;69.00;99747.94;5062509;28;19924;-81
2024/03/23 02:04:24;;;;;;;;;;;9.20;99.90;;;9.64;68.92;99750.00;5079497;28;19928;-81
2024/03/23 02:06:52;;;;;;;;;;;9.20;99.90;;;9.61;68.95;99742.44;5097651;28;20397;-81
2024/03/23 02:09:18;;;;;;;;;;;9.20;99.90;;;9.63;69.11;99742.25;5078831;28;20367;-81
2024/03/23 02:11:45;;;;;;;;;;;9.20;99.90;;;9.62;68.84;99733.44;5097158;28;19925;-81
2024/03/23 02:14:13;;;;;;;;;;;9.20;99.90;;;9.63;68.53;99731.59;5078865;28;19924;-81
2024/03/23 02:16:40;;;;;;;;;;;9.20;99.90;;;9.63;68.70;99716.44;5064909;28;19924;-81
2024/03/23 02:19:06;;;;;;;;;;;9.20;99.90;;;9.64;68.46;99723.38;5101243;28;20311;-81
2024/03/23 02:21:33;;;;;;;;;;;9.20;99.90;;;9.59;68.58;99725.09;5100726;28;19982;-81
2024/03/23 02:24:01;;;;;;;;;;;9.20;99.90;;;9.59;68.78;99723.25;5082976;28;19964;-81
2024/03/23 02:26:28;;;;;;;;;;;9.20;99.90;;;9.57;69.00;99730.66;5115750;28;20326;-81
2024/03/23 02:28:54;;;;;;;;;;;9.20;99.90;;;9.55;69.21;99720.19;5121222;28;19955;-81
2024/03/23 02:31:21;;;;;;;;;;;9.10;99.90;;;9.52;69.22;99730.50;5090131;28;20459;-81
2024/03/23 02:33:47;;;;;;;;;;;9.10;99.90;;;9.48;69.50;99737.31;5120975;28;19977;-81
2024/03/23 02:36:15;;;;;;;;;;;9.00;99.90;;;9.48;69.63;99726.66;5115549;28;19965;-81
2024/03/23 02:38:41;;;;;;;;;;;9.00;99.90;;;9.47;69.69;99728.50;5099486;28;19924;-81
2024/03/23 02:41:10;;;;;;;;;;;9.00;99.90;;;9.47;69.48;99719.72;5099718;28;20361;-81
2024/03/23 02:43:36;;;;;;;;;;;9.00;99.90;;;9.46;69.71;99718.88;5111684;28;20270;-81
2024/03/23 02:46:04;;;;;;;;;;;9.00;99.90;;;9.45;69.89;99721.75;5120095;28;19924;-81
2024/03/23 02:48:30;;;;;;;;;;;9.00;99.90;;;9.47;69.85;99719.72;5121449;28;20398;-81
2024/03/23 02:50:57;;;;;;;;;;;9.00;99.90;;;9.46;69.83;99720.72;5119248;28;19927;-81
2024/03/23 02:53:23;;;;;;;;;;;9.00;99.90;;;9.45;69.62;99716.44;5118941;28;19923;-81
2024/03/23 02:55:50;;;;;;;;;;;9.00;99.90;;;9.44;69.90;99723.63;5120421;28;19938;-81
2024/03/23 02:58:18;;;;;;;;;;;9.00;99.90;;;9.43;69.76;99729.97;5103126;28;20378;-81
2024/03/23 03:00:45;;;;;;;;;;;9.00;99.90;;;9.42;69.76;99732.84;5120525;28;19924;-81
2024/03/23 03:03:11;;;;;;;;;;;9.00;99.90;;;9.40;69.82;99733.06;5119491;28;20352;-81
2024/03/23 03:05:38;;;;;;;;;;;9.00;99.90;;;9.40;69.86;99734.94;5118369;28;20440;-81
2024/03/23 03:08:05;;;;;;;;;;;9.00;99.90;;;9.42;69.90;99735.50;5119346;28;19923;-81
2024/03/23 03:10:34;;;;;;;;;;;9.00;99.90;;;9.42;69.75;99730.19;5119079;28;19969;-81
2024/03/23 03:13:00;;;;;;;;;;;8.90;99.90;;;9.40;69.62;99725.09;5120529;28;19924;-81
2024/03/23 03:15:30;;;;;;;;;;;8.90;99.90;;;9.37;69.88;99730.88;5118768;28;19928;-81
2024/03/23 03:17:56;;;;;;;;;;;8.90;99.90;;;9.38;70.07;99723.69;5101579;28;19927;-81
2024/03/23 03:20:24;;;;;;;;;;;8.90;99.90;;;9.38;69.97;99729.84;5119453;28;19973;-81
2024/03/23 03:22:50;;;;;;;;;;;9.00;99.90;;;9.36;69.87;99729.22;5120379;28;20018;-81
2024/03/23 03:25:17;;;;;;;;;;;9.00;99.90;;;9.37;69.85;99730.03;5112639;28;19951;-81
2024/03/23 03:27:43;;;;;;;;;;;9.00;99.90;;;9.37;69.87;99722.06;5099559;28;19924;-81
2024/03/23 03:30:12;;;;;;;;;;;8.80;99.90;;;9.34;69.98;99710.03;5099051;28;19931;-81
2024/03/23 03:32:40;;;;;;;;;;;8.90;99.90;;;9.32;70.27;99697.97;5098614;28;19924;-81
2024/03/23 03:35:07;;;;;;;;;;;8.90;99.90;;;9.28;70.36;99705.59;5099606;28;19924;-81
2024/03/23 03:37:34;;;;;;;;;;;8.90;99.90;;;9.27;70.26;99711.91;5081404;28;19964;-81
2024/03/23 03:40:01;;;;;;;;;;;8.90;99.90;;;9.28;70.53;99710.91;5080999;28;19931;-81
2024/03/23 03:42:27;;;;;;;;;;;8.90;99.90;;;9.27;70.52;99720.75;5098028;28;19924;-81
2024/03/23 03:44:54;;;;;;;;;;;8.90;99.90;;;9.25;70.40;99717.47;5098869;28;19924;-81
2024/03/23 03:47:20;;;;;;;;;;;8.80;99.90;;;9.25;70.64;99727.31;5099553;28;19995;-81
2024/03/23 03:49:50;;;;;;;;;;;8.80;99.90;;;9.26;70.54;99724.41;5098869;28;19942;-81
2024/03/23 03:52:16;;;;;;;;;;;8.90;99.90;;;9.29;70.32;99713.34;5098195;28;19924;-81
2024/03/23 03:54:43;;;;;;;;;;;8.90;99.90;;;9.28;70.26;99705.59;5098322;28;20315;-81
2024/03/23 03:57:09;;;;;;;;;;;8.80;99.90;;;9.26;70.07;99700.47;5098599;28;19967;-81
2024/03/23 03:59:36;;;;;;;;;;;8.80;99.90;;;9.25;70.16;99704.16;5105019;28;20299;-81
2024/03/23 04:02:03;;;;;;;;;;;8.80;99.90;;;9.25;70.08;99696.19;5119406;28;19927;-81
2024/03/23 04:04:30;;;;;;;;;;;8.80;99.90;;;9.20;70.33;99703.22;5100589;28;19927;-81
2024/03/23 04:07:00;;;;;;;;;;;8.80;99.90;;;9.18;70.26;99708.75;5118116;28;19983;-81
2024/03/23 04:09:27;;;;;;;;;;;8.70;99.90;;;9.20;70.24;99713.84;5118679;28;19972;-81
2024/03/23 04:11:53;;;;;;;;;;;8.70;99.90;;;9.19;70.53;99717.56;5119856;28;20337;-81
2024/03/23 04:14:20;;;;;;;;;;;8.70;99.90;;;9.19;70.58;99709.56;5117682;28;19931;-81
2024/03/23 04:16:47;;;;;;;;;;;8.70;99.90;;;9.20;70.33;99711.19;5117835;28;19931;-81
2024/03/23 04:19:15;;;;;;;;;;;8.70;99.90;;;9.18;70.37;99711.41;5095534;28;19924;-81
2024/03/23 04:21:41;;;;;;;;;;;8.70;99.90;;;9.17;70.52;99716.94;5098181;28;19924;-81
2024/03/23 04:24:09;;;;;;;;;;;8.80;99.90;;;9.17;70.43;99709.78;5080263;28;19950;-81
2024/03/23 04:26:41;;;;;;;;;;;8.70;99.90;;;9.16;70.61;99713.47;5097421;28;19960;-81
2024/03/23 04:29:08;;;;;;;;;;;8.70;99.90;;;9.15;70.59;99703.06;5097658;28;19930;-81
2024/03/23 04:31:35;;;;;;;;;;;8.70;99.90;;;9.13;70.24;99697.97;5097108;28;19924;-81
2024/03/23 04:34:02;;;;;;;;;;;8.70;99.90;;;9.11;70.18;99697.34;5098229;28;19949;-81
2024/03/23 04:36:28;;;;;;;;;;;8.70;99.90;;;9.09;70.35;99688.81;5101291;28;20291;-81
2024/03/23 04:38:55;;;;;;;;;;;8.70;99.90;;;9.08;70.66;99692.50;5097926;28;19924;-81
2024/03/23 04:41:23;;;;;;;;;;;8.70;99.90;;;9.07;70.34;99690.84;5096451;28;19996;-81
2024/03/23 04:43:51;;;;;;;;;;;8.70;99.90;;;9.05;70.50;99692.94;5098572;28;20011;-81
2024/03/23 04:46:17;;;;;;;;;;;8.60;99.90;;;9.05;70.50;99692.94;5080322;28;19974;-81
2024/03/23 04:48:45;;;;;;;;;;;8.60;99.90;;;9.07;70.32;99690.84;5098422;28;19980;-81
2024/03/23 04:51:12;;;;;;;;;;;8.60;99.90;;;9.08;70.29;99697.81;5097169;28;19925;-81
2024/03/23 04:53:40;;;;;;;;;;;8.60;99.90;;;9.06;70.18;99697.22;5097155;28;19946;-81
2024/03/23 04:56:06;;;;;;;;;;;8.60;99.90;;;9.06;70.33;99696.41;5089722;28;19928;-81
2024/03/23 04:58:35;;;;;;;;;;;8.60;99.90;;;9.04;70.32;99691.31;5117282;28;19923;-81
2024/03/23 05:01:01;;;;;;;;;;;8.60;99.90;;;9.05;70.39;99695.59;5119453;28;19923;-81
2024/03/23 05:03:28;;;;;;;;;;;8.60;99.90;;;9.00;70.33;99700.75;5116595;28;19927;-81
2024/03/23 05:05:54;;;;;;;;;;;8.50;99.90;;;8.98;70.57;99693.00;5116745;28;19959;-81
2024/03/23 05:08:22;;;;;;;;;;;8.50;99.90;;;8.93;70.36;99698.16;5099515;28;19980;-81
2024/03/23 05:10:48;;;;;;;;;;;8.50;99.90;;;8.86;70.72;99691.28;5117849;28;19930;-81
2024/03/23 05:13:15;;;;;;;;;;;8.40;99.90;;;8.86;70.97;99688.63;5117597;28;19927;-81
2024/03/23 05:15:43;;;;;;;;;;;8.40;99.90;;;8.90;70.97;99687.16;5117884;28;20331;-81
2024/03/23 05:18:10;;;;;;;;;;;8.50;99.90;;;8.90;71.28;99697.78;5115967;28;19924;-81
2024/03/23 05:20:37;;;;;;;;;;;8.50;99.90;;;8.96;71.28;99702.22;5116411;28;19927;-81
2024/03/23 05:23:04;;;;;;;;;;;8.50;99.90;;;8.96;71.10;99702.22;5098664;28;19932;-81
2024/03/23 05:25:30;;;;;;;;;;;8.50;99.90;;;8.96;71.27;99703.03;5116838;28;19977;-81
2024/03/23 05:27:58;;;;;;;;;;;8.50;99.90;;;8.90;71.55;99711.09;5117403;28;19951;-81
2024/03/23 05:30:24;;;;;;;;;;;8.50;99.90;;;8.91;71.44;99700.22;5116342;28;20015;-81
2024/03/23 05:32:53;;;;;;;;;;;8.50;99.90;;;8.92;71.41;99707.16;5116139;28;20006;-81
2024/03/23 05:35:19;;;;;;;;;;;8.50;99.90;;;8.93;71.32;99700.00;5099397;28;20018;-81
2024/03/23 05:37:46;;;;;;;;;;;8.50;99.90;;;8.92;71.52;99711.66;5098729;28;19924;-81
2024/03/23 05:40:15;;;;;;;;;;;8.50;99.90;;;8.92;71.41;99706.34;5099394;28;19930;-79
2024/03/23 05:42:43;;;;;;;;;;;8.50;99.90;;;8.89;71.55;99707.63;5097854;28;20451;-80
2024/03/23 05:45:12;;;;;;;;;;;8.40;99.90;;;8.89;71.46;99707.63;5098201;28;19923;-79
2024/03/23 05:47:39;;;;;;;;;;;8.50;99.90;;;8.87;71.48;99714.16;5080033;28;19924;-79
2024/03/23 05:50:12;;;;;;;;;;;8.40;99.90;;;8.84;71.71;99707.47;5081568;28;20018;-79
2024/03/23 05:52:39;;;;;;;;;;;8.40;99.90;;;8.88;71.67;99711.31;5120858;28;19931;-80
2024/03/23 05:55:06;;;;;;;;;;;8.50;99.90;;;8.79;71.64;99717.94;5119974;28;19928;-79
2024/03/23 05:57:34;;;;;;;;;;;8.40;99.90;;;8.81;72.02;99715.06;5135003;27;20379;-79
2024/03/23 06:00:00;;;;;;;;;;;8.40;99.90;;;8.81;71.75;99717.72;5119809;28;19924;-79
2024/03/23 06:02:30;;;;;;;;;;;8.40;99.90;;;8.66;72.27;99705.56;5083791;28;20018;-85
2024/03/23 06:04:57;;;;;;;;;;;8.30;99.90;;;8.64;72.55;99712.13;5118986;28;19928;-82
2024/03/23 06:07:27;;;;;;;;;;;8.30;99.90;;;8.66;72.81;99710.06;5100841;28;19931;-83
2024/03/23 06:09:53;;;;;;;;;;;8.30;99.90;;;8.72;72.61;99714.50;5092459;28;19930;-81
2024/03/23 06:12:21;;;;;;;;;;;8.30;99.90;;;8.76;72.52;99716.50;5118624;28;19994;-82
2024/03/23 06:14:48;;;;;;;;;;;8.40;99.90;;;8.67;72.52;99733.75;5100499;28;20372;-81
2024/03/23 06:17:15;;;;;;;;;;;8.30;99.90;;;8.62;72.84;99722.97;5095122;28;19924;-82
2024/03/23 06:19:41;;;;;;;;;;;8.30;99.90;;;8.64;72.93;99720.91;5080186;28;19924;-82
2024/03/23 06:22:09;;;;;;;;;;;8.30;99.90;;;8.71;73.03;99732.31;5064144;28;19928;-84
2024/03/23 06:24:37;;;;;;;;;;;8.30;99.90;;;8.77;72.84;99736.75;5098605;28;19924;-82
2024/03/23 06:27:04;;;;;;;;;;;8.40;99.90;;;8.80;72.90;99735.50;5098167;28;19970;-83
2024/03/23 06:29:30;;;;;;;;;;;8.40;99.90;;;8.77;72.58;99735.94;5109554;28;19969;-83
2024/03/23 06:31:58;;;;;;;;;;;8.40;99.90;;;8.72;72.99;99735.78;5110880;28;19928;-82
2024/03/23 06:34:25;;;;;;;;;;;8.40;99.90;;;8.70;72.84;99729.88;5116223;28;20026;-79
2024/03/23 06:36:52;;;;;;;;;;;8.40;99.90;;;8.73;72.89;99724.91;5098206;28;20299;-80
2024/03/23 06:39:18;;;;;;;;;;;8.40;99.90;;;8.63;73.18;99732.56;5099642;28;19928;-79
2024/03/23 06:41:53;;;;;;;;;;;8.40;99.90;;;8.71;73.59;99732.31;5081291;28;20368;-81
2024/03/23 06:44:19;;;;;;;;;;;8.40;99.90;;;8.81;73.84;99725.69;5099733;28;20015;-81
2024/03/23 06:46:47;;;;;;;;;;;8.50;99.90;;;8.91;73.65;99726.81;5097786;28;20387;-80
2024/03/23 06:49:13;;;;;;;;;;;8.60;99.90;;;8.91;73.92;99733.97;5098408;28;20245;-79
2024/03/23 06:51:40;;;;;;;;;;;8.70;99.90;;;8.94;73.91;99734.38;5098098;28;19977;-79
2024/03/23 06:54:07;;;;;;;;;;;8.70;99.90;;;8.99;73.42;99733.72;5098219;28;19925;-79
2024/03/23 06:56:34;;;;;;;;;;;8.70;99.90;;;8.96;73.73;99734.13;5096753;28;19969;-79
2024/03/23 06:59:02;;;;;;;;;;;8.70;99.90;;;9.03;73.68;99737.56;5098728;28;19973;-79
2024/03/23 07:01:29;;;;;;;;;;;8.80;99.90;;;9.01;73.95;99736.94;5098501;28;20448;-79
2024/03/23 07:03:55;;;;;;;;;;;8.80;99.90;;;9.06;74.06;99744.28;5080757;28;19946;-79
2024/03/23 07:06:23;;;;;;;;;;;8.80;99.90;;;9.12;73.96;99735.41;5097069;28;19924;-79
2024/03/23 07:08:49;;;;;;;;;;;8.80;99.90;;;9.13;73.73;99734.41;5110586;28;19924;-79
2024/03/23 07:11:20;;;;;;;;;;;8.90;99.90;;;9.21;73.84;99732.25;5118702;28;19953;-79
2024/03/23 07:13:46;;;;;;;;;;;9.00;99.90;;;9.25;73.81;99735.28;5101006;28;19970;-79
2024/03/23 07:16:14;;;;;;;;;;;9.00;99.90;;;9.30;74.30;99730.13;5099320;28;19924;-79
2024/03/23 07:18:40;;;;;;;;;;;9.10;99.90;;;9.12;73.38;99733.56;5097926;28;20295;-80
2024/03/23 07:21:08;;;;;;;;;;;9.00;99.90;;;9.13;74.33;99740.53;5098870;28;19953;-80
2024/03/23 07:23:38;;;;;;;;;;;9.00;99.90;;;9.27;74.43;99731.38;5080883;28;19928;-82
2024/03/23 07:26:07;;;;;;;;;;;9.10;99.90;;;9.29;74.29;99726.66;5111558;28;19969;-85
2024/03/23 07:28:34;;;;;;;;;;;9.10;99.90;;;9.32;74.44;99728.06;5098131;28;19931;-83
2024/03/23 07:31:04;;;;;;;;;;;9.20;99.90;;;9.32;74.97;99725.41;5099651;28;19992;-83
2024/03/23 07:33:32;;;;;;;;;;;9.20;99.90;;;9.29;74.43;99729.31;5098000;28;20387;-79
2024/03/23 07:36:00;;;;;;;;;;;9.20;99.90;;;9.38;75.04;99729.84;5097182;28;19971;-79
2024/03/23 07:38:27;;;;;;;;;;;9.20;99.90;;;9.39;75.00;99731.44;5107997;28;19955;-80
2024/03/23 07:41:06;;;;;;;;;;;9.30;99.90;;;9.42;74.42;99735.50;5107295;28;19924;-79
2024/03/23 07:43:32;;;;;;;;;;;9.30;99.90;;;9.37;74.90;99738.00;5109235;28;19930;-79
2024/03/23 07:46:03;;;;;;;;;;;9.30;99.90;;;9.45;75.53;99732.41;5109785;28;19931;-80
2024/03/23 07:48:31;;;;;;;;;;;9.40;99.90;;;9.53;75.66;99735.59;5114405;28;19923;-80
2024/03/23 07:51:02;;;;;;;;;;;9.50;99.90;;;9.38;75.87;99732.50;5116974;28;19927;-79
2024/03/23 07:53:29;;;;;;;;;;;9.40;99.90;;;9.57;75.64;99735.97;5108488;28;19924;-80
2024/03/23 07:55:58;;;;;;;;;;;9.50;99.90;;;9.57;74.80;99735.97;5097531;28;19956;-82
2024/03/23 07:58:24;;;;;;;;;;;9.50;99.90;;;9.63;75.09;99744.91;5108785;28;19933;-82
2024/03/23 08:00:52;;;;;;;;;;;9.60;99.90;;;9.68;74.98;99742.41;5097819;28;20342;-81
2024/03/23 08:03:18;;;;;;;;;;;9.60;99.90;;;9.80;75.10;99740.59;5103598;28;19928;-82
2024/03/23 08:05:47;;;;;;;;;;;9.80;99.90;;;9.76;74.87;99745.56;5119266;28;19953;-82
2024/03/23 08:08:14;;;;;;;;;;;9.80;99.90;;;9.76;75.15;99742.91;5117610;28;19963;-82
2024/03/23 08:10:49;;;;;;;;;;;9.80;99.90;;;9.80;75.13;99756.56;5090328;28;19956;-82
2024/03/23 08:13:15;;;;;;;;;;;9.90;99.90;;;9.86;75.48;99749.53;5085278;28;20387;-81
2024/03/23 08:15:42;;;;;;;;;;;9.90;99.90;;;9.92;74.56;99744.13;5089742;28;19923;-82
2024/03/23 08:18:10;;;;;;;;;;;9.90;99.90;;;9.74;73.24;99741.50;5079875;28;19924;-82
2024/03/23 08:20:38;;;;;;;;;;;9.80;99.90;;;9.88;74.43;99744.81;5097965;28;19931;-82
2024/03/23 08:23:07;;;;;;;;;;;9.90;99.90;;;9.88;74.90;99740.28;5113005;28;20341;-84
2024/03/23 08:25:35;;;;;;;;;;;10.00;99.90;;;9.75;73.60;99737.78;5116298;28;20336;-82
2024/03/23 08:28:01;;;;;;;;;;;9.90;99.90;;;9.77;73.48;99741.88;5116282;28;20510;-83
2024/03/23 08:30:29;;;;;;;;;;;9.80;99.90;;;9.77;73.53;99736.53;5097148;28;19980;-83
2024/03/23 08:32:55;;;;;;;;;;;9.80;99.90;;;9.44;72.17;99741.44;5086923;28;20383;-82
2024/03/23 08:35:22;;;;;;;;;;;9.60;99.90;;;9.48;72.95;99743.44;5077683;28;20026;-83
2024/03/23 08:37:50;;;;;;;;;;;9.60;99.90;;;9.43;72.43;99739.81;5084531;28;19928;-83
2024/03/23 08:40:20;;;;;;;;;;;9.50;99.90;;;9.57;73.46;99732.50;5097730;28;19928;-83
2024/03/23 08:42:46;;;;;;;;;;;9.70;99.90;;;9.69;74.08;99734.19;5078073;28;19924;-82
2024/03/23 08:45:13;;;;;;;;;;;9.80;99.90;;;9.82;73.57;99730.53;5096860;28;19931;-83
2024/03/23 08:47:39;;;;;;;;;;;9.90;99.90;;;9.77;71.22;99730.41;5097221;28;19954;-83
2024/03/23 08:50:07;;;;;;;;;;;9.90;99.90;;;9.68;70.11;99732.56;5078533;28;19931;-81
2024/03/23 08:52:33;;;;;;;;;;;9.80;99.90;;;9.46;70.17;99734.03;5034218;28;19951;-83
2024/03/23 08:55:01;;;;;;;;;;;9.60;99.90;;;9.20;69.13;99729.81;5084097;28;19954;-83
2024/03/23 08:57:28;;;;;;;;;;;9.40;99.90;;;9.24;70.25;99739.00;5103296;28;19967;-82
2024/03/23 08:59:56;;;;;;;;;;;9.30;99.90;;;8.86;71.05;99745.25;5083491;28;19989;-83
2024/03/23 09:02:22;;;;;;;;;;;9.10;99.90;;;8.89;71.60;99744.03;5064972;28;20456;-83
2024/03/23 09:04:49;;;;;;;;;;;8.90;99.90;;;8.88;71.10;99747.69;5081672;28;19932;-82
2024/03/23 09:07:15;;;;;;;;;;;8.90;99.90;;;8.87;70.69;99746.88;5104930;28;19962;-83
2024/03/23 09:09:42;;;;;;;;;;;8.90;99.90;;;8.87;70.63;99759.38;5083543;28;19930;-81
2024/03/23 09:12:08;;;;;;;;;;;8.80;99.90;;;8.98;70.92;99758.69;5067645;28;19928;-81
2024/03/23 09:14:37;;;;;;;;;;;8.90;99.90;;;9.03;71.20;99761.50;5083627;28;19933;-83
2024/03/23 09:17:03;;;;;;;;;;;9.00;99.90;;;9.03;70.02;99761.50;5079792;28;19931;-83
2024/03/23 09:19:31;;;;;;;;;;;8.90;99.90;;;8.96;70.01;99763.38;5097219;28;19928;-83
2024/03/23 09:21:57;;;;;;;;;;;8.90;99.90;;;9.03;70.33;99745.53;5048837;28;19924;-84
2024/03/23 09:24:25;;;;;;;;;;;8.90;99.90;;;9.12;70.45;99762.00;5101607;28;20272;-85
2024/03/23 09:26:52;;;;;;;;;;;9.00;99.90;;;9.10;69.87;99762.25;5086680;28;19927;-84
2024/03/23 09:29:19;;;;;;;;;;;9.00;99.90;;;9.01;70.14;99758.22;5085411;28;19978;-86
2024/03/23 09:31:49;;;;;;;;;;;8.90;99.90;;;9.07;71.16;99761.84;5092900;28;19924;-85
2024/03/23 09:34:16;;;;;;;;;;;9.00;99.90;;;9.13;71.76;99756.50;5102708;28;19939;-80
2024/03/23 09:36:43;;;;;;;;;;;9.10;99.90;;;9.22;72.45;99760.50;5100833;28;19924;-81
2024/03/23 09:39:10;;;;;;;;;;;9.30;99.90;;;9.27;71.10;99758.00;5100695;28;19931;-80
2024/03/23 09:41:36;;;;;;;;;;;9.40;99.90;;;9.28;71.90;99751.63;5101301;28;20394;-80
2024/03/23 09:44:03;;;;;;;;;;;9.50;99.90;;;9.33;71.82;99763.47;5101476;28;19924;-80
2024/03/23 09:46:34;;;;;;;;;;;9.50;99.90;;;9.25;70.16;99736.09;5100496;28;19927;-80
2024/03/23 09:49:04;;;;;;;;;;;9.40;99.90;;;9.23;70.31;99754.13;5101387;28;19932;-80
2024/03/23 09:51:30;;;;;;;;;;;9.40;99.90;;;9.43;71.22;99747.81;5101483;28;19924;-80
2024/03/23 09:53:58;;;;;;;;;;;9.60;99.90;;;9.60;69.99;99740.03;5099635;28;19931;-80
2024/03/23 09:56:24;;;;;;;;;;;9.70;99.90;;;9.66;70.06;99734.63;5101532;28;20039;-81
2024/03/23 09:58:51;;;;;;;;;;;9.80;99.90;;;9.68;68.24;99737.88;5100311;28;19924;-80
2024/03/23 10:01:17;;;;;;;;;;;9.90;99.90;;;9.67;69.35;99736.25;5102770;28;19925;-80
2024/03/23 10:03:45;;;;;;;;;;;9.90;99.90;;;9.70;68.32;99727.81;5100278;28;19989;-80
2024/03/23 10:06:21;;;;;;;;;;;9.90;99.90;;;9.79;66.48;99713.16;5099535;28;20418;-80
2024/03/23 10:08:50;;;;;;;;;;;10.00;99.90;;;9.78;67.36;99716.84;5097346;28;19996;-81
2024/03/23 10:11:17;;;;;;;;;;;10.00;99.90;;;9.79;66.76;99713.16;5101273;28;19931;-81
2024/03/23 10:13:46;;;;;;;;;;;10.00;99.90;;;9.79;66.04;99707.81;5100070;28;20302;-81
2024/03/23 10:16:21;;;;;;;;;;;10.00;99.90;;;9.73;64.40;99708.72;5101471;28;19928;-81
2024/03/23 10:18:52;;;;;;;;;;;9.90;99.90;;;9.65;63.70;99706.38;5100252;28;19928;-81
2024/03/23 10:21:20;;;;;;;;;;;9.70;99.90;;;9.49;62.33;99704.31;5100410;28;19946;-80
2024/03/23 10:23:49;;;;;;;;;;;9.60;99.90;;;9.35;62.00;99708.16;5099871;28;19924;-81
2024/03/23 10:26:18;;;;;;;;;;;9.50;99.90;;;9.29;62.85;99700.03;5083052;28;19924;-80
2024/03/23 10:28:59;;;;;;;;;;;9.40;99.90;;;9.32;62.45;99713.91;5099302;28;19973;-80
2024/03/23 10:31:25;;;;;;;;;;;9.40;99.90;;;9.35;63.28;99708.97;5101662;28;20355;-80
2024/03/23 10:33:54;;;;;;;;;;;9.50;99.90;;;9.46;62.66;99708.22;5082792;28;19973;-80
2024/03/23 10:36:22;;;;;;;;;;;9.60;99.90;;;9.62;63.39;99703.38;5100464;28;20017;-80
2024/03/23 10:38:51;;;;;;;;;;;9.70;99.90;;;9.83;64.57;99702.06;5082692;28;20395;-81
2024/03/23 10:41:18;;;;;;;;;;;9.90;99.90;;;9.88;61.60;99699.53;5082365;28;19924;-80
2024/03/23 10:43:47;;;;;;;;;;;10.10;99.90;;;9.84;62.06;99699.16;5099772;28;19977;-81
2024/03/23 10:46:13;;;;;;;;;;;10.00;99.90;;;9.78;62.05;99706.22;5080739;28;19974;-80
2024/03/23 10:48:41;;;;;;;;;;;9.90;99.90;;;9.61;61.06;99710.50;5099827;28;19973;-79
2024/03/23 10:51:08;;;;;;;;;;;9.80;99.90;;;9.31;61.88;99766.31;5100428;28;20356;-80
2024/03/23 10:53:38;;;;;;;;;;;9.60;99.90;;;8.66;61.74;99797.78;5081859;28;19971;-82
2024/03/23 10:56:05;;;;;;;;;;;9.00;99.90;;;8.58;62.50;99790.88;5081601;28;19924;-80
2024/03/23 10:58:36;;;;;;;;;;;8.60;99.90;;;8.49;63.47;99785.03;5100878;28;19932;-81
2024/03/23 11:01:03;;;;;;;;;;;8.40;99.90;;;8.57;64.04;99783.13;5082503;28;19946;-80
2024/03/23 11:03:31;;;;;;;;;;;8.40;99.90;;;8.59;64.30;99779.22;5098087;28;20418;-80
2024/03/23 11:05:58;;;;;;;;;;;8.30;99.90;;;8.59;64.69;99771.25;5085012;28;20414;-78
2024/03/23 11:08:32;;;;;;;;;;;8.30;99.90;;;8.61;64.79;99763.88;5097275;28;19963;-78
2024/03/23 11:11:19;;;;;;;;;;;8.30;99.90;;;8.48;65.31;99764.75;5080082;28;20333;-79
2024/03/23 11:13:48;;;;;;;;;;;8.30;99.90;;;8.62;66.32;99757.50;5062918;28;19931;-78
2024/03/23 11:16:16;;;;;;;;;;;8.30;99.90;;;8.72;66.59;99752.53;5115446;28;19924;-78
2024/03/23 11:18:44;;;;;;;;;;;8.40;99.90;;;8.73;66.76;99754.16;5117801;28;20349;-78
2024/03/23 11:21:11;;;;;;;;;;;8.50;99.90;;;8.83;67.79;99750.19;5118064;28;19927;-80
2024/03/23 11:23:39;;;;;;;;;;;8.60;99.90;;;8.86;68.24;99753.25;5079400;28;20037;-80
2024/03/23 11:26:08;;;;;;;;;;;8.60;99.90;;;8.78;68.93;99750.84;5061172;28;19975;-80
2024/03/23 11:28:37;;;;;;;;;;;8.60;99.90;;;8.90;69.38;99751.78;5078528;28;20306;-80
2024/03/23 11:31:10;;;;;;;;;;;8.70;99.90;;;8.89;69.89;99752.00;5063271;28;19924;-80
2024/03/23 11:33:37;;;;;;;;;;;8.80;99.90;;;8.81;69.31;99744.28;5077275;28;20403;-79